Time;durP1;ratioP1;P1;durP2;ratioP2;P2;SDS_P1;SDS_P2;PMS_P1;PMS_P2;Temp;Humidity;BMP_temperature;BMP_pressure;BME280_temperature;BME280_humidity;BME280_pressure;Samples;Min_cycle;Max_cycle;Signal;HPM_P1;HPM_P2
2022/06/08 00:02:04;;;;;;;10.48;5.65;;;;;;;;;;5105527;28;20114;-73
2022/06/08 00:04:30;;;;;;;9.25;5.97;;;;;;;;;;5116931;28;20032;-74
2022/06/08 00:06:57;;;;;;;11.25;5.90;;;;;;;;;;5114564;27;20046;-74
2022/06/08 00:09:23;;;;;;;10.60;6.00;;;;;;;;;;5127854;27;20178;-74
2022/06/08 00:11:49;;;;;;;11.60;5.88;;;;;;;;;;5108012;27;20216;-73
2022/06/08 00:14:15;;;;;;;10.00;7.00;;;;;;;;;;5114118;27;20487;-73
2022/06/08 00:16:42;;;;;;;10.38;6.47;;;;;;;;;;5116178;27;20093;-73
2022/06/08 00:19:08;;;;;;;11.02;6.95;;;;;;;;;;5127975;27;20557;-73
2022/06/08 00:21:34;;;;;;;11.32;7.03;;;;;;;;;;5103493;27;20051;-74
2022/06/08 00:24:00;;;;;;;10.13;6.18;;;;;;;;;;5112610;27;20481;-73
2022/06/08 00:26:27;;;;;;;10.02;5.82;;;;;;;;;;5116675;27;20042;-73
2022/06/08 00:28:53;;;;;;;10.98;6.40;;;;;;;;;;5117298;27;20402;-73
2022/06/08 00:31:20;;;;;;;9.35;5.82;;;;;;;;;;5122081;27;20135;-73
2022/06/08 00:33:47;;;;;;;12.38;6.40;;;;;;;;;;5103847;27;20065;-73
2022/06/08 00:36:13;;;;;;;11.73;6.65;;;;;;;;;;5117092;27;20433;-73
2022/06/08 00:38:39;;;;;;;12.40;6.28;;;;;;;;;;5127707;27;20050;-73
2022/06/08 00:41:18;;;;;;;11.40;6.00;;;;;;;;;;5105329;27;20028;-74
2022/06/08 00:43:45;;;;;;;11.07;6.22;;;;;;;;;;5121627;27;20038;-73
2022/06/08 00:46:11;;;;;;;9.75;5.97;;;;;;;;;;5115812;27;20731;-73
2022/06/08 00:48:40;;;;;;;12.35;8.10;;;;;;;;;;5127350;27;20051;-73
2022/06/08 00:51:06;;;;;;;10.20;6.65;;;;;;;;;;5117661;27;20043;-73
2022/06/08 00:53:34;;;;;;;11.18;6.35;;;;;;;;;;5119804;27;20072;-73
2022/06/08 00:56:06;;;;;;;11.18;6.43;;;;;;;;;;5125959;27;20047;-73
2022/06/08 00:58:34;;;;;;;8.85;6.00;;;;;;;;;;5093894;27;20073;-73
2022/06/08 01:01:00;;;;;;;9.25;5.68;;;;;;;;;;5123323;27;20067;-73
2022/06/08 01:03:27;;;;;;;11.52;6.15;;;;;;;;;;5122375;27;20486;-74
2022/06/08 01:06:04;;;;;;;11.68;6.55;;;;;;;;;;5114877;27;20039;-73
2022/06/08 01:08:41;;;;;;;10.05;6.05;;;;;;;;;;5104394;27;20051;-73
2022/06/08 01:11:11;;;;;;;9.77;5.13;;;;;;;;;;5103716;28;20191;-73
2022/06/08 01:13:39;;;;;;;12.63;7.47;;;;;;;;;;5125067;27;20293;-73
2022/06/08 01:16:06;;;;;;;13.27;7.80;;;;;;;;;;5113528;27;20524;-73
2022/06/08 01:18:33;;;;;;;11.55;7.97;;;;;;;;;;5122786;27;20277;-73
2022/06/08 01:21:19;;;;;;;10.52;7.93;;;;;;;;;;5120571;27;20035;-73
2022/06/08 01:23:46;;;;;;;13.68;8.73;;;;;;;;;;5113442;27;20122;-73
2022/06/08 01:26:18;;;;;;;13.38;8.27;;;;;;;;;;5125849;27;20035;-73
2022/06/08 01:29:05;;;;;;;13.00;7.63;;;;;;;;;;5119446;27;20035;-73
2022/06/08 01:31:37;;;;;;;12.63;8.18;;;;;;;;;;5046016;28;20130;-73
2022/06/08 01:34:06;;;;;;;11.38;7.18;;;;;;;;;;5114549;27;20088;-73
2022/06/08 01:36:32;;;;;;;11.77;7.47;;;;;;;;;;5121444;27;20644;-73
2022/06/08 01:38:59;;;;;;;9.90;6.22;;;;;;;;;;5122640;27;20032;-73
2022/06/08 01:41:25;;;;;;;9.98;6.68;;;;;;;;;;5113480;27;20042;-73
2022/06/08 01:44:10;;;;;;;11.02;6.95;;;;;;;;;;5098402;28;20513;-73
2022/06/08 01:46:41;;;;;;;10.38;6.28;;;;;;;;;;5120577;27;20411;-73
2022/06/08 01:49:11;;;;;;;14.45;7.45;;;;;;;;;;5114341;27;20101;-73
2022/06/08 01:51:55;;;;;;;12.77;7.28;;;;;;;;;;5125906;27;20054;-73
2022/06/08 01:54:30;;;;;;;12.45;7.35;;;;;;;;;;5119373;27;20398;-73
2022/06/08 01:56:56;;;;;;;10.13;6.32;;;;;;;;;;5097707;28;20086;-73
2022/06/08 01:59:32;;;;;;;12.43;6.22;;;;;;;;;;5126368;27;20065;-73
2022/06/08 02:01:58;;;;;;;9.23;5.90;;;;;;;;;;5117220;27;20394;-73
2022/06/08 02:04:33;;;;;;;11.75;6.45;;;;;;;;;;5117950;27;20035;-73
2022/06/08 02:07:08;;;;;;;13.10;7.78;;;;;;;;;;5126143;27;20122;-73
2022/06/08 02:09:44;;;;;;;12.13;7.63;;;;;;;;;;5123758;27;20188;-73
2022/06/08 02:12:11;;;;;;;13.50;7.65;;;;;;;;;;5120092;27;20070;-73
2022/06/08 02:14:40;;;;;;;14.43;8.60;;;;;;;;;;5114794;27;20042;-73
2022/06/08 02:17:10;;;;;;;14.02;8.27;;;;;;;;;;5125763;27;20043;-73
2022/06/08 02:19:39;;;;;;;13.50;7.78;;;;;;;;;;5116281;27;20463;-73
2022/06/08 02:22:16;;;;;;;13.40;7.63;;;;;;;;;;5117662;27;20032;-73
2022/06/08 02:24:46;;;;;;;12.90;7.50;;;;;;;;;;5126041;27;20038;-73
2022/06/08 02:27:45;;;;;;;11.02;6.93;;;;;;;;;;5114075;27;20067;-73
2022/06/08 02:30:13;;;;;;;11.93;7.10;;;;;;;;;;5056409;28;20491;-73
2022/06/08 02:35:36;;;;;;;11.67;6.23;;;;;;;;;;5117846;27;20043;-73
2022/06/08 02:38:06;;;;;;;9.23;5.60;;;;;;;;;;5115888;27;20036;-73
2022/06/08 02:40:35;;;;;;;13.65;6.90;;;;;;;;;;5125005;27;20101;-73
2022/06/08 02:43:03;;;;;;;15.80;7.82;;;;;;;;;;5097228;27;20035;-73
2022/06/08 02:45:29;;;;;;;12.70;7.55;;;;;;;;;;5118951;27;20126;-73
2022/06/08 02:47:58;;;;;;;12.38;7.93;;;;;;;;;;5105168;27;20516;-74
2022/06/08 02:50:26;;;;;;;16.20;7.88;;;;;;;;;;5112081;27;20070;-73
2022/06/08 02:52:54;;;;;;;12.65;7.93;;;;;;;;;;5122753;27;20411;-73
2022/06/08 02:55:35;;;;;;;14.57;8.68;;;;;;;;;;5101936;28;20039;-73
2022/06/08 02:58:18;;;;;;;15.50;9.25;;;;;;;;;;5115991;27;20046;-73
2022/06/08 03:00:48;;;;;;;16.65;9.00;;;;;;;;;;5099136;27;20042;-72
2022/06/08 03:03:17;;;;;;;13.05;8.05;;;;;;;;;;5118130;27;20071;-73
2022/06/08 03:05:45;;;;;;;13.75;8.18;;;;;;;;;;5122455;27;20035;-72
2022/06/08 03:08:17;;;;;;;11.45;7.78;;;;;;;;;;5094672;27;20134;-73
2022/06/08 03:10:44;;;;;;;11.68;7.57;;;;;;;;;;5104184;28;20040;-73
2022/06/08 03:13:33;;;;;;;11.55;7.20;;;;;;;;;;5102106;27;20410;-73
2022/06/08 03:16:01;;;;;;;13.20;7.18;;;;;;;;;;5082521;27;20470;-73
2022/06/08 03:18:28;;;;;;;12.32;8.27;;;;;;;;;;5122490;27;20104;-73
2022/06/08 03:20:54;;;;;;;12.40;7.88;;;;;;;;;;5112174;27;20122;-73
2022/06/08 03:23:20;;;;;;;12.88;8.25;;;;;;;;;;5120442;27;20035;-73
2022/06/08 03:25:47;;;;;;;13.90;8.60;;;;;;;;;;5111397;27;20077;-73
2022/06/08 03:28:14;;;;;;;12.38;7.95;;;;;;;;;;5122827;27;20402;-74
2022/06/08 03:30:41;;;;;;;12.00;7.60;;;;;;;;;;5117206;27;20081;-73
2022/06/08 03:33:08;;;;;;;14.20;8.98;;;;;;;;;;5114410;27;20146;-73
2022/06/08 03:35:35;;;;;;;12.40;8.38;;;;;;;;;;5123920;27;20284;-73
2022/06/08 03:38:01;;;;;;;15.82;9.18;;;;;;;;;;5112944;28;20126;-73
2022/06/08 03:40:27;;;;;;;14.77;9.30;;;;;;;;;;5118157;28;20119;-73
2022/06/08 03:42:54;;;;;;;13.45;9.27;;;;;;;;;;5120841;28;20031;-73
2022/06/08 03:45:20;;;;;;;15.98;9.55;;;;;;;;;;5111390;28;20293;-73
2022/06/08 03:47:48;;;;;;;18.75;12.25;;;;;;;;;;5123766;28;20526;-73
2022/06/08 03:50:18;;;;;;;15.52;10.82;;;;;;;;;;5116127;28;20046;-73
2022/06/08 03:52:47;;;;;;;19.52;11.77;;;;;;;;;;5114611;28;20045;-73
2022/06/08 03:55:15;;;;;;;18.50;10.65;;;;;;;;;;5123925;28;20066;-73
2022/06/08 03:57:45;;;;;;;14.50;9.55;;;;;;;;;;5095465;28;20047;-74
2022/06/08 04:00:12;;;;;;;17.65;10.63;;;;;;;;;;5101166;28;20036;-73
2022/06/08 04:02:39;;;;;;;15.65;10.73;;;;;;;;;;5104717;28;20354;-73
2022/06/08 04:05:06;;;;;;;14.10;10.50;;;;;;;;;;5111291;28;20402;-73
2022/06/08 04:07:32;;;;;;;15.43;9.88;;;;;;;;;;5122379;28;20047;-73
2022/06/08 04:09:59;;;;;;;14.43;9.85;;;;;;;;;;5099382;28;20039;-74
2022/06/08 04:12:26;;;;;;;15.07;9.75;;;;;;;;;;5094146;28;20573;-73
2022/06/08 04:14:52;;;;;;;16.92;10.85;;;;;;;;;;5087821;28;20601;-73
2022/06/08 04:17:18;;;;;;;16.33;10.55;;;;;;;;;;5106033;28;20074;-73
2022/06/08 04:19:47;;;;;;;15.93;11.23;;;;;;;;;;5081673;28;20119;-74
2022/06/08 04:22:21;;;;;;;17.60;11.23;;;;;;;;;;5096494;28;20101;-74
2022/06/08 04:24:47;;;;;;;18.08;12.38;;;;;;;;;;5107958;28;20043;-73
2022/06/08 04:27:14;;;;;;;19.00;13.13;;;;;;;;;;5105131;28;20074;-73
2022/06/08 04:29:40;;;;;;;18.38;12.20;;;;;;;;;;5099598;28;20053;-74
2022/06/08 04:32:09;;;;;;;19.90;12.50;;;;;;;;;;5097263;28;20039;-74
2022/06/08 04:34:37;;;;;;;17.02;12.40;;;;;;;;;;5089493;28;20243;-73
2022/06/08 04:37:03;;;;;;;19.10;11.65;;;;;;;;;;5094864;28;20039;-73
2022/06/08 04:39:29;;;;;;;23.55;13.57;;;;;;;;;;5101217;28;20039;-73
2022/06/08 04:41:55;;;;;;;18.77;12.65;;;;;;;;;;5086432;28;20039;-73
2022/06/08 04:44:22;;;;;;;20.60;13.73;;;;;;;;;;5077076;28;20034;-73
2022/06/08 04:46:48;;;;;;;18.33;13.05;;;;;;;;;;5105724;28;20160;-73
2022/06/08 04:49:15;;;;;;;20.88;14.45;;;;;;;;;;5090092;28;20048;-73
2022/06/08 04:51:42;;;;;;;27.08;15.55;;;;;;;;;;5086441;27;20453;-73
2022/06/08 04:54:08;;;;;;;24.52;15.35;;;;;;;;;;5096992;27;20050;-73
2022/06/08 04:56:34;;;;;;;24.88;15.10;;;;;;;;;;5113607;27;20463;-73
2022/06/08 04:59:01;;;;;;;23.38;16.17;;;;;;;;;;5105608;28;20507;-73
2022/06/08 05:01:27;;;;;;;28.48;17.02;;;;;;;;;;5105497;27;20649;-73
2022/06/08 05:03:54;;;;;;;25.98;16.67;;;;;;;;;;5094762;27;20546;-74
2022/06/08 05:06:20;;;;;;;27.42;17.90;;;;;;;;;;5100364;27;20047;-73
2022/06/08 05:08:47;;;;;;;30.13;20.02;;;;;;;;;;5106422;28;20048;-73
2022/06/08 05:11:14;;;;;;;24.23;16.80;;;;;;;;;;5105050;27;20494;-73
2022/06/08 05:13:40;;;;;;;36.58;20.45;;;;;;;;;;5097980;28;20550;-73
2022/06/08 05:16:07;;;;;;;33.38;20.98;;;;;;;;;;5092779;28;20536;-73
2022/06/08 05:18:34;;;;;;;32.65;19.60;;;;;;;;;;5099909;27;20063;-73
2022/06/08 05:21:00;;;;;;;32.17;20.33;;;;;;;;;;5085789;28;20040;-73
2022/06/08 05:23:28;;;;;;;31.00;20.75;;;;;;;;;;5108057;27;20035;-73
2022/06/08 05:25:56;;;;;;;36.10;21.48;;;;;;;;;;5093728;27;20509;-73
2022/06/08 05:28:23;;;;;;;37.78;24.00;;;;;;;;;;5094311;28;20086;-73
2022/06/08 05:30:49;;;;;;;30.98;20.52;;;;;;;;;;5092693;28;20139;-74
2022/06/08 05:33:15;;;;;;;34.40;21.88;;;;;;;;;;5102812;28;20032;-73
2022/06/08 05:35:42;;;;;;;38.30;24.10;;;;;;;;;;5092081;27;20038;-73
2022/06/08 05:38:08;;;;;;;41.90;24.65;;;;;;;;;;5092525;28;20035;-73
2022/06/08 05:40:37;;;;;;;33.55;22.55;;;;;;;;;;5085922;27;20076;-74
2022/06/08 05:43:04;;;;;;;40.47;26.00;;;;;;;;;;5081622;28;20454;-73
2022/06/08 05:45:31;;;;;;;40.95;25.42;;;;;;;;;;5091992;27;20180;-73
2022/06/08 05:47:58;;;;;;;39.03;24.05;;;;;;;;;;5079896;27;20095;-73
2022/06/08 05:50:25;;;;;;;40.65;24.35;;;;;;;;;;5100848;27;20078;-73
2022/06/08 05:52:51;;;;;;;40.85;26.13;;;;;;;;;;5097857;28;20066;-74
2022/06/08 05:55:19;;;;;;;45.17;27.90;;;;;;;;;;5108070;27;20043;-73
2022/06/08 05:57:45;;;;;;;53.17;29.15;;;;;;;;;;5098310;27;20511;-74
2022/06/08 06:00:13;;;;;;;46.55;27.75;;;;;;;;;;5085225;28;20078;-74
2022/06/08 06:02:39;;;;;;;54.00;30.70;;;;;;;;;;5106138;27;20084;-73
2022/06/08 06:05:06;;;;;;;56.30;31.95;;;;;;;;;;5095163;27;20035;-74
2022/06/08 06:07:32;;;;;;;55.75;32.92;;;;;;;;;;5106824;28;20047;-74
2022/06/08 06:10:03;;;;;;;55.92;31.55;;;;;;;;;;5101731;27;20452;-74
2022/06/08 06:12:32;;;;;;;51.78;30.17;;;;;;;;;;5081413;28;20038;-74
2022/06/08 06:15:01;;;;;;;51.83;31.25;;;;;;;;;;5108365;27;20057;-74
2022/06/08 06:17:30;;;;;;;60.13;32.30;;;;;;;;;;5098141;27;20581;-74
2022/06/08 06:19:57;;;;;;;46.45;29.00;;;;;;;;;;5084409;28;20069;-74
2022/06/08 06:22:25;;;;;;;53.40;31.40;;;;;;;;;;5106514;27;20467;-74
2022/06/08 06:24:51;;;;;;;51.20;30.70;;;;;;;;;;5078318;27;20069;-74
2022/06/08 06:27:18;;;;;;;59.78;33.55;;;;;;;;;;5105778;28;20132;-74
2022/06/08 06:29:44;;;;;;;51.78;32.45;;;;;;;;;;5084971;27;20512;-74
2022/06/08 06:32:16;;;;;;;47.88;29.13;;;;;;;;;;5097595;28;20039;-75
2022/06/08 06:34:43;;;;;;;52.25;30.90;;;;;;;;;;5094129;27;20039;-73
2022/06/08 06:37:10;;;;;;;47.75;29.90;;;;;;;;;;5105056;28;20491;-74
2022/06/08 06:39:36;;;;;;;49.92;30.08;;;;;;;;;;5101577;27;20032;-74
2022/06/08 06:42:02;;;;;;;50.25;29.83;;;;;;;;;;5079742;28;20399;-75
2022/06/08 06:44:28;;;;;;;43.97;27.80;;;;;;;;;;5091132;27;20436;-75
2022/06/08 06:46:54;;;;;;;39.42;25.58;;;;;;;;;;5089210;28;20419;-75
2022/06/08 06:49:20;;;;;;;43.35;27.85;;;;;;;;;;5100950;27;20502;-74
2022/06/08 06:51:46;;;;;;;42.90;25.83;;;;;;;;;;5081273;28;20035;-75
2022/06/08 06:54:13;;;;;;;36.30;24.88;;;;;;;;;;5107913;27;20046;-74
2022/06/08 06:56:39;;;;;;;34.70;22.67;;;;;;;;;;5096318;27;20050;-75
2022/06/08 06:59:05;;;;;;;34.65;22.33;;;;;;;;;;5102839;28;20036;-74
2022/06/08 07:01:34;;;;;;;32.72;22.17;;;;;;;;;;5104137;27;20027;-74
2022/06/08 07:04:00;;;;;;;32.97;20.33;;;;;;;;;;5094850;27;20122;-75
2022/06/08 07:06:29;;;;;;;31.27;20.58;;;;;;;;;;5107042;28;20179;-76
2022/06/08 07:08:59;;;;;;;33.00;20.08;;;;;;;;;;5099554;27;20059;-75
2022/06/08 07:11:40;;;;;;;30.42;17.85;;;;;;;;;;5080922;28;20050;-75
2022/06/08 07:14:08;;;;;;;30.67;19.00;;;;;;;;;;5107543;28;20040;-75
2022/06/08 07:16:34;;;;;;;26.83;17.60;;;;;;;;;;5096809;27;20331;-75
2022/06/08 07:19:01;;;;;;;24.40;16.40;;;;;;;;;;5099759;28;20110;-76
2022/06/08 07:21:27;;;;;;;25.02;16.50;;;;;;;;;;5088682;27;20304;-75
2022/06/08 07:23:55;;;;;;;26.58;15.32;;;;;;;;;;5094433;27;20050;-75
2022/06/08 07:26:28;;;;;;;20.85;13.00;;;;;;;;;;5104411;28;20039;-75
2022/06/08 07:28:54;;;;;;;20.52;12.48;;;;;;;;;;5102770;27;20122;-76
2022/06/08 07:31:21;;;;;;;19.45;11.65;;;;;;;;;;5095363;28;20071;-75
2022/06/08 07:33:48;;;;;;;14.88;10.18;;;;;;;;;;5107053;28;20048;-75
2022/06/08 07:36:14;;;;;;;16.45;9.90;;;;;;;;;;5080581;28;20070;-76
2022/06/08 07:38:40;;;;;;;17.20;10.00;;;;;;;;;;5099674;28;20039;-75
2022/06/08 07:41:07;;;;;;;16.85;9.38;;;;;;;;;;5105985;28;20035;-76
2022/06/08 07:43:33;;;;;;;12.40;8.55;;;;;;;;;;5094130;28;20046;-76
2022/06/08 07:45:59;;;;;;;15.38;7.85;;;;;;;;;;5100061;28;20059;-75
2022/06/08 07:51:11;;;;;;;11.55;7.07;;;;;;;;;;5094183;28;20051;-75
2022/06/08 07:53:46;;;;;;;10.15;6.60;;;;;;;;;;5106345;28;20049;-75
2022/06/08 07:56:12;;;;;;;10.10;5.88;;;;;;;;;;5100026;28;20039;-75
2022/06/08 07:58:38;;;;;;;10.55;5.65;;;;;;;;;;5109815;28;20043;-75
2022/06/08 08:01:06;;;;;;;9.77;5.28;;;;;;;;;;5093677;28;20042;-76
2022/06/08 08:03:32;;;;;;;8.27;5.18;;;;;;;;;;5088584;28;20115;-76
2022/06/08 08:05:59;;;;;;;8.27;4.72;;;;;;;;;;5099444;28;20047;-76
2022/06/08 08:08:26;;;;;;;9.77;5.30;;;;;;;;;;5097209;28;20067;-75
2022/06/08 08:10:52;;;;;;;10.23;5.13;;;;;;;;;;5107030;28;20047;-76
2022/06/08 08:13:18;;;;;;;8.63;4.90;;;;;;;;;;5095017;28;20636;-76
2022/06/08 08:15:45;;;;;;;8.63;4.63;;;;;;;;;;5085067;28;20511;-76
2022/06/08 08:18:12;;;;;;;9.90;4.80;;;;;;;;;;5103069;28;20082;-76
2022/06/08 08:20:38;;;;;;;8.57;4.65;;;;;;;;;;5093799;28;20043;-76
2022/06/08 08:23:04;;;;;;;9.48;4.28;;;;;;;;;;5106336;28;20085;-76
2022/06/08 08:25:31;;;;;;;10.15;4.28;;;;;;;;;;5081536;28;20043;-76
2022/06/08 08:27:58;;;;;;;6.97;3.70;;;;;;;;;;5101170;28;20507;-76
2022/06/08 08:30:25;;;;;;;9.57;4.28;;;;;;;;;;5109882;27;20122;-76
2022/06/08 08:32:51;;;;;;;7.88;3.95;;;;;;;;;;5097501;27;20035;-76
2022/06/08 08:35:18;;;;;;;7.82;3.50;;;;;;;;;;5089722;28;20071;-75
2022/06/08 08:37:45;;;;;;;7.40;3.30;;;;;;;;;;5106091;27;20598;-76
2022/06/08 08:40:30;;;;;;;9.18;4.32;;;;;;;;;;5098941;28;20039;-76
2022/06/08 08:42:57;;;;;;;;;;;;;;;;;;5085938;27;20426;-76
2022/06/08 08:45:23;;;;;;;8.00;2.92;;;;;;;;;;5104340;28;19957;-76
2022/06/08 08:47:49;;;;;;;5.82;2.80;;;;;;;;;;5107176;27;20046;-76
2022/06/08 08:50:16;;;;;;;9.20;3.40;;;;;;;;;;5112830;27;20070;-77
2022/06/08 08:53:00;;;;;;;7.47;3.63;;;;;;;;;;5098663;27;20043;-76
2022/06/08 08:55:40;;;;;;;5.95;3.33;;;;;;;;;;5102101;28;20048;-77
2022/06/08 08:58:11;;;;;;;6.72;2.85;;;;;;;;;;5110448;27;20506;-76
2022/06/08 09:00:39;;;;;;;6.93;3.00;;;;;;;;;;5094108;28;20123;-76
2022/06/08 09:03:30;;;;;;;6.40;3.30;;;;;;;;;;5103233;27;20043;-76
2022/06/08 09:05:59;;;;;;;5.88;2.90;;;;;;;;;;5080596;27;20035;-76
2022/06/08 09:08:26;;;;;;;6.65;3.00;;;;;;;;;;5108329;28;20110;-77
2022/06/08 09:10:56;;;;;;;6.72;3.13;;;;;;;;;;5085459;27;20047;-76
2022/06/08 09:13:23;;;;;;;9.13;3.15;;;;;;;;;;5087795;28;20127;-77
2022/06/08 09:15:52;;;;;;;9.15;3.78;;;;;;;;;;5074907;27;20031;-76
2022/06/08 09:18:39;;;;;;;9.40;3.08;;;;;;;;;;5090691;28;20082;-76
2022/06/08 09:21:27;;;;;;;8.57;3.40;;;;;;;;;;5105361;27;20062;-77
2022/06/08 09:23:54;;;;;;;6.68;3.28;;;;;;;;;;5096677;27;20050;-78
2022/06/08 09:26:23;;;;;;;6.90;3.05;;;;;;;;;;5113431;27;20039;-76
2022/06/08 09:29:01;;;;;;;7.93;3.45;;;;;;;;;;5101898;28;20039;-76
2022/06/08 09:31:31;;;;;;;8.85;3.60;;;;;;;;;;5092269;27;20358;-77
2022/06/08 09:34:17;;;;;;;9.98;3.95;;;;;;;;;;5097235;27;20054;-77
2022/06/08 09:36:43;;;;;;;7.75;3.63;;;;;;;;;;5101663;28;20113;-76
2022/06/08 09:39:15;;;;;;;10.30;4.10;;;;;;;;;;5107460;27;20107;-77
2022/06/08 09:41:48;;;;;;;7.63;3.95;;;;;;;;;;5096900;27;20042;-78
2022/06/08 09:44:28;;;;;;;9.68;4.80;;;;;;;;;;5087355;28;20070;-77
2022/06/08 09:52:44;;;;;;;7.50;3.95;;;;;;;;;;5103535;27;20040;-76
2022/06/08 09:55:25;;;;;;;7.00;3.70;;;;;;;;;;5078778;27;20119;-76
2022/06/08 09:57:51;;;;;;;8.73;4.45;;;;;;;;;;5088651;28;20120;-77
2022/06/08 10:00:27;;;;;;;6.63;3.63;;;;;;;;;;5103532;27;20118;-77
2022/06/08 10:03:09;;;;;;;11.02;4.47;;;;;;;;;;5095960;28;20040;-75
2022/06/08 10:05:35;;;;;;;7.30;3.85;;;;;;;;;;5089424;28;20039;-75
2022/06/08 10:08:12;;;;;;;7.93;3.58;;;;;;;;;;5085101;27;20328;-76
2022/06/08 10:10:42;;;;;;;8.65;4.68;;;;;;;;;;5088851;28;20457;-76
2022/06/08 10:13:16;;;;;;;6.03;3.30;;;;;;;;;;5109103;28;20122;-76
2022/06/08 10:15:42;;;;;;;7.97;4.47;;;;;;;;;;5092027;28;20122;-77
2022/06/08 10:18:21;;;;;;;8.88;4.00;;;;;;;;;;5104658;27;20039;-75
2022/06/08 10:20:52;;;;;;;8.70;4.18;;;;;;;;;;5095335;27;20051;-75
2022/06/08 10:23:24;;;;;;;7.95;3.80;;;;;;;;;;5088702;28;20293;-77
2022/06/08 10:25:55;;;;;;;8.63;4.55;;;;;;;;;;5085936;27;20039;-75
2022/06/08 10:28:28;;;;;;;10.98;5.97;;;;;;;;;;5083927;28;20172;-77
2022/06/08 10:31:00;;;;;;;9.57;4.40;;;;;;;;;;5063057;27;20046;-77
2022/06/08 10:33:45;;;;;;;10.07;5.30;;;;;;;;;;5086479;28;20479;-76
2022/06/08 10:36:12;;;;;;;8.52;4.97;;;;;;;;;;5106951;27;20074;-78
2022/06/08 10:38:42;;;;;;;12.27;5.32;;;;;;;;;;5095474;27;20045;-76
2022/06/08 10:42:39;;;;;;;9.07;5.18;;;;;;;;;;5104685;28;20167;-77
2022/06/08 10:44:02;;;;;;;9.48;5.10;;;;;;;;;;5105370;27;20050;-76
2022/06/08 10:46:32;;;;;;;7.32;4.20;;;;;;;;;;5095448;27;20051;-77
2022/06/08 10:48:59;;;;;;;7.22;4.55;;;;;;;;;;5104671;28;20098;-76
2022/06/08 10:51:27;;;;;;;7.45;3.50;;;;;;;;;;5102615;27;20410;-76
2022/06/08 10:56:39;;;;;;;6.60;3.60;;;;;;;;;;5096866;27;20070;-76
2022/06/08 10:59:08;;;;;;;6.32;3.33;;;;;;;;;;5101860;28;20031;-77
2022/06/08 11:01:37;;;;;;;9.70;4.13;;;;;;;;;;5104884;27;20074;-77
2022/06/08 11:04:07;;;;;;;6.85;3.72;;;;;;;;;;5095032;27;20400;-76
2022/06/08 11:06:46;;;;;;;7.55;3.72;;;;;;;;;;5105013;28;20039;-76
2022/06/08 11:09:31;;;;;;;7.32;3.25;;;;;;;;;;5085759;27;20054;-76
2022/06/08 11:12:04;;;;;;;4.22;2.88;;;;;;;;;;5078037;27;20558;-76
2022/06/08 11:14:52;;;;;;;7.50;3.10;;;;;;;;;;5104312;28;20110;-76
2022/06/08 11:17:35;;;;;;;7.90;3.25;;;;;;;;;;5104731;27;20039;-77
2022/06/08 11:20:11;;;;;;;5.95;2.80;;;;;;;;;;5077682;27;20038;-78
2022/06/08 11:22:39;;;;;;;9.45;3.35;;;;;;;;;;5102253;28;20071;-77
2022/06/08 11:25:11;;;;;;;9.90;3.38;;;;;;;;;;5087214;28;20035;-76
2022/06/08 11:27:39;;;;;;;7.47;3.53;;;;;;;;;;5094527;27;20040;-77
2022/06/08 11:30:23;;;;;;;7.40;3.15;;;;;;;;;;5105675;28;20035;-78
2022/06/08 11:32:53;;;;;;;7.25;3.33;;;;;;;;;;5085855;27;20043;-77
2022/06/08 11:35:37;;;;;;;10.55;3.45;;;;;;;;;;5094644;28;20332;-77
2022/06/08 11:38:16;;;;;;;8.55;3.65;;;;;;;;;;5083323;27;20072;-77
2022/06/08 11:40:42;;;;;;;9.00;3.97;;;;;;;;;;5099018;28;20508;-77
2022/06/08 11:43:15;;;;;;;8.65;4.00;;;;;;;;;;5095450;28;20032;-77
2022/06/08 11:45:47;;;;;;;8.98;3.92;;;;;;;;;;5079470;28;20050;-77
2022/06/08 11:48:14;;;;;;;7.05;3.83;;;;;;;;;;5084577;28;20039;-78
2022/06/08 11:50:45;;;;;;;9.65;4.07;;;;;;;;;;5086809;28;20046;-77
2022/06/08 11:53:30;;;;;;;6.50;3.63;;;;;;;;;;5093964;28;20510;-77
2022/06/08 11:56:13;;;;;;;6.57;3.60;;;;;;;;;;5102361;28;20043;-78
2022/06/08 11:58:44;;;;;;;5.72;3.15;;;;;;;;;;5072654;28;20048;-76
2022/06/08 12:01:15;;;;;;;7.75;3.88;;;;;;;;;;5105754;28;20080;-76
2022/06/08 12:03:49;;;;;;;7.45;3.75;;;;;;;;;;5081644;28;20036;-76
2022/06/08 12:06:18;;;;;;;7.03;3.50;;;;;;;;;;5099861;28;20051;-76
2022/06/08 12:08:44;;;;;;;8.35;4.00;;;;;;;;;;5110613;27;20051;-77
2022/06/08 12:11:12;;;;;;;8.80;4.20;;;;;;;;;;5081551;27;20047;-76
2022/06/08 12:13:38;;;;;;;8.20;4.13;;;;;;;;;;5107505;28;20388;-76
2022/06/08 12:16:05;;;;;;;6.50;4.28;;;;;;;;;;5089431;27;20100;-77
2022/06/08 12:18:42;;;;;;;11.43;6.03;;;;;;;;;;5081479;28;20074;-77
2022/06/08 12:21:20;;;;;;;9.45;6.40;;;;;;;;;;5067062;27;20494;-75
2022/06/08 12:24:02;;;;;;;10.80;5.65;;;;;;;;;;5103776;28;20046;-77
2022/06/08 12:26:36;;;;;;;9.70;4.68;;;;;;;;;;5077694;27;20039;-76
2022/06/08 12:29:19;;;;;;;8.38;3.33;;;;;;;;;;5109504;28;20109;-75
2022/06/08 12:31:47;;;;;;;8.00;2.72;;;;;;;;;;5105634;27;20058;-74
2022/06/08 12:34:42;;;;;;;7.18;2.30;;;;;;;;;;5081838;28;20043;-74
2022/06/08 12:37:44;;;;;;;6.90;2.17;;;;;;;;;;5084226;27;20074;-75
2022/06/08 12:40:16;;;;;;;5.50;2.10;;;;;;;;;;4980506;28;20514;-75
2022/06/08 12:42:50;;;;;;;3.55;1.75;;;;;;;;;;5045160;28;20052;-74
2022/06/08 12:45:25;;;;;;;5.22;2.55;;;;;;;;;;5104224;28;20047;-75
2022/06/08 12:47:51;;;;;;;;;;;;;;;;;;5109002;27;20068;-75
2022/06/08 12:50:22;;;;;;;6.03;2.22;;;;;;;;;;5095438;27;20013;-74
2022/06/08 12:52:48;;;;;;;3.88;2.00;;;;;;;;;;5083471;27;20558;-75
2022/06/08 12:55:16;;;;;;;4.90;1.95;;;;;;;;;;5083144;28;20047;-75
2022/06/08 12:57:42;;;;;;;5.20;2.30;;;;;;;;;;5100716;28;20122;-74
2022/06/08 13:00:09;;;;;;;7.45;2.63;;;;;;;;;;5093295;27;20394;-75
2022/06/08 13:02:38;;;;;;;6.85;2.20;;;;;;;;;;5099570;27;20042;-74
2022/06/08 13:05:16;;;;;;;7.55;2.60;;;;;;;;;;5103115;28;20042;-73
2022/06/08 13:07:42;;;;;;;6.43;2.40;;;;;;;;;;5092151;27;20119;-74
2022/06/08 13:10:08;;;;;;;7.13;3.10;;;;;;;;;;5097218;27;20399;-74
2022/06/08 13:12:43;;;;;;;7.07;2.50;;;;;;;;;;5105928;28;20122;-74
2022/06/08 13:15:27;;;;;;;8.75;2.83;;;;;;;;;;5105670;27;20039;-74
2022/06/08 13:17:53;;;;;;;7.90;3.00;;;;;;;;;;5079945;27;20100;-74
2022/06/08 13:20:21;;;;;;;7.95;3.08;;;;;;;;;;5106895;28;20126;-74
2022/06/08 13:22:47;;;;;;;6.72;2.85;;;;;;;;;;5103746;27;20084;-74
2022/06/08 13:25:15;;;;;;;7.90;3.10;;;;;;;;;;5098711;28;20039;-75
2022/06/08 13:27:41;;;;;;;7.60;3.10;;;;;;;;;;5092503;27;20096;-74
2022/06/08 13:30:08;;;;;;;8.90;3.78;;;;;;;;;;5099080;27;20122;-74
2022/06/08 13:32:34;;;;;;;7.55;3.15;;;;;;;;;;5102604;28;20028;-74
2022/06/08 13:35:02;;;;;;;8.57;3.28;;;;;;;;;;5106964;27;20058;-74
2022/06/08 13:37:39;;;;;;;7.05;3.47;;;;;;;;;;5096509;27;20099;-75
2022/06/08 13:40:16;;;;;;;6.95;3.78;;;;;;;;;;5105459;28;20035;-75
2022/06/08 13:42:44;;;;;;;11.85;4.18;;;;;;;;;;5088744;27;20118;-75
2022/06/08 13:45:25;;;;;;;8.25;3.92;;;;;;;;;;5096328;27;20486;-74
2022/06/08 13:48:00;;;;;;;7.55;3.88;;;;;;;;;;5089168;28;20082;-75
2022/06/08 13:50:29;;;;;;;8.25;4.47;;;;;;;;;;5104009;27;20031;-75
2022/06/08 13:52:56;;;;;;;12.07;5.55;;;;;;;;;;5080038;28;20039;-75
2022/06/08 13:55:27;;;;;;;10.70;5.75;;;;;;;;;;5109004;28;20403;-75
2022/06/08 13:57:55;;;;;;;8.80;5.55;;;;;;;;;;5100892;27;20527;-75
2022/06/08 14:00:21;;;;;;;13.13;6.32;;;;;;;;;;5100229;28;20124;-75
2022/06/08 14:03:02;;;;;;;11.18;8.10;;;;;;;;;;5108541;27;20180;-75
2022/06/08 14:13:47;;;;;;;14.60;10.93;;;;;;;;;;5084540;28;20422;-74
2022/06/08 14:16:14;;;;;;;13.43;10.35;;;;;;;;;;5105517;27;20035;-75
2022/06/08 14:18:42;;;;;;;12.63;9.30;;;;;;;;;;5078992;27;20228;-75
2022/06/08 14:21:09;;;;;;;14.73;10.52;;;;;;;;;;5107044;28;20040;-74
2022/06/08 14:23:35;;;;;;;15.38;10.57;;;;;;;;;;5101112;27;20063;-76
2022/06/08 14:26:03;;;;;;;13.23;9.90;;;;;;;;;;5098597;28;20431;-75
2022/06/08 14:28:30;;;;;;;12.80;9.15;;;;;;;;;;5092423;27;20528;-75
2022/06/08 14:30:56;;;;;;;12.90;9.25;;;;;;;;;;5097193;27;20038;-75
2022/06/08 14:33:25;;;;;;;15.52;9.43;;;;;;;;;;5103165;28;20703;-75
2022/06/08 14:35:52;;;;;;;13.35;8.63;;;;;;;;;;5105070;27;20043;-75
2022/06/08 14:38:20;;;;;;;14.10;10.02;;;;;;;;;;5095216;27;20141;-75
2022/06/08 14:40:46;;;;;;;13.23;9.68;;;;;;;;;;5107455;28;20043;-75
2022/06/08 14:43:14;;;;;;;16.95;10.15;;;;;;;;;;5100594;27;20088;-75
2022/06/08 14:45:42;;;;;;;16.75;9.98;;;;;;;;;;5099122;28;20066;-75
2022/06/08 14:48:19;;;;;;;13.48;10.20;;;;;;;;;;5108474;27;20050;-76
2022/06/08 14:50:47;;;;;;;12.60;10.13;;;;;;;;;;5097529;27;20072;-75
2022/06/08 14:53:14;;;;;;;12.48;9.35;;;;;;;;;;5101390;28;20479;-76
2022/06/08 14:58:33;;;;;;;13.48;9.32;;;;;;;;;;5081473;27;20415;-76
2022/06/08 15:00:59;;;;;;;13.68;10.23;;;;;;;;;;5101978;28;20039;-76
2022/06/08 15:03:26;;;;;;;12.77;10.32;;;;;;;;;;5104281;27;20116;-76
2022/06/08 15:05:53;;;;;;;17.75;11.57;;;;;;;;;;5095155;27;20043;-76
2022/06/08 15:08:20;;;;;;;14.45;10.93;;;;;;;;;;5089634;28;20063;-76
2022/06/08 15:13:33;;;;;;;12.88;10.38;;;;;;;;;;5095628;28;20044;-75
2022/06/08 15:16:00;;;;;;;14.45;11.40;;;;;;;;;;5111421;27;20395;-75